createdAt,value
2023-05-15T00:01:18.870Z,11.28
2023-05-15T00:03:46.427Z,10.82
2023-05-15T00:06:15.549Z,10.74
2023-05-15T00:08:43.069Z,10.93
2023-05-15T00:11:10.659Z,11.49
2023-05-15T00:13:38.788Z,11.51
2023-05-15T00:16:07.325Z,11.80
2023-05-15T00:18:35.089Z,11.38
2023-05-15T00:21:02.700Z,11.01
2023-05-15T00:23:31.501Z,11.04
2023-05-15T00:25:58.985Z,11.32
2023-05-15T00:28:26.472Z,11.60
2023-05-15T00:30:53.965Z,12.11
2023-05-15T00:33:21.437Z,12.43
2023-05-15T00:35:48.950Z,12.38
2023-05-15T00:38:16.460Z,11.88
2023-05-15T00:40:46.711Z,12.04
2023-05-15T00:43:15.208Z,12.37
2023-05-15T00:45:43.380Z,12.22
2023-05-15T00:48:11.185Z,12.45
2023-05-15T00:50:41.324Z,12.08
2023-05-15T00:53:09.417Z,12.27
2023-05-15T00:55:37.920Z,12.06
2023-05-15T00:58:08.104Z,12.22
2023-05-15T01:00:36.068Z,12.24
2023-05-15T01:03:03.877Z,12.05
2023-05-15T01:05:31.498Z,12.17
2023-05-15T01:08:09.407Z,12.75
2023-05-15T01:10:37.686Z,12.49
2023-05-15T01:13:08.454Z,12.29
2023-05-15T01:15:36.946Z,12.12
2023-05-15T01:18:05.994Z,11.78
2023-05-15T01:20:41.782Z,11.88
2023-05-15T01:23:16.685Z,11.75
2023-05-15T01:26:14.579Z,11.72
2023-05-15T01:28:49.410Z,11.93
2023-05-15T01:31:23.416Z,11.98
2023-05-15T01:33:55.746Z,12.23
2023-05-15T01:36:27.952Z,12.45
2023-05-15T01:38:58.950Z,12.27
2023-05-15T01:41:30.338Z,12.21
2023-05-15T01:44:05.773Z,12.22
2023-05-15T01:46:39.150Z,12.22
2023-05-15T01:49:12.090Z,12.07
2023-05-15T01:51:40.934Z,12.38
2023-05-15T01:54:09.879Z,12.60
2023-05-15T01:56:38.808Z,12.45
2023-05-15T01:59:09.268Z,12.59
2023-05-15T02:01:38.279Z,12.90
2023-05-15T02:04:06.645Z,12.94
2023-05-15T02:06:34.693Z,12.84
2023-05-15T02:09:03.974Z,12.32
2023-05-15T02:11:31.482Z,12.43
2023-05-15T02:14:01.400Z,12.07
2023-05-15T02:16:30.263Z,12.04
2023-05-15T02:18:57.804Z,12.13
2023-05-15T02:21:25.362Z,12.52
2023-05-15T02:23:52.863Z,12.02
2023-05-15T02:26:31.050Z,12.10
2023-05-15T02:29:11.415Z,11.93
2023-05-15T02:31:48.567Z,12.16
2023-05-15T02:34:20.431Z,12.43
2023-05-15T02:36:50.129Z,12.80
2023-05-15T02:39:19.298Z,12.62
2023-05-15T02:41:48.026Z,12.43
2023-05-15T02:44:16.355Z,12.43
2023-05-15T02:46:45.507Z,12.23
2023-05-15T02:49:14.419Z,11.78
2023-05-15T02:51:41.915Z,12.07
2023-05-15T02:54:09.862Z,12.33
2023-05-15T02:56:37.385Z,12.07
2023-05-15T02:59:05.047Z,12.30
2023-05-15T03:01:32.519Z,12.91
2023-05-15T03:04:01.479Z,13.25
2023-05-15T03:06:28.952Z,13.22
2023-05-15T03:08:56.424Z,13.31
2023-05-15T03:11:23.909Z,13.33
2023-05-15T03:13:51.353Z,13.31
2023-05-15T03:16:18.835Z,13.39
2023-05-15T03:18:46.483Z,13.12
2023-05-15T03:21:15.474Z,13.06
2023-05-15T03:23:43.007Z,12.83
2023-05-15T03:26:10.557Z,13.12
2023-05-15T03:28:38.035Z,12.70
2023-05-15T03:31:05.760Z,12.91
2023-05-15T03:33:33.300Z,13.26
2023-05-15T03:36:00.807Z,13.21
2023-05-15T03:38:29.614Z,13.05
2023-05-15T03:40:57.074Z,12.99
2023-05-15T03:43:24.746Z,12.80
2023-05-15T03:45:52.224Z,12.62
2023-05-15T03:48:19.709Z,12.87
2023-05-15T03:50:47.294Z,12.47
2023-05-15T03:53:14.918Z,12.53
2023-05-15T03:55:43.751Z,12.24
2023-05-15T03:58:11.249Z,11.91
2023-05-15T04:00:38.719Z,11.70
2023-05-15T04:03:06.463Z,12.24
2023-05-15T04:05:34.028Z,13.02
2023-05-15T04:08:01.523Z,13.23
2023-05-15T04:10:29.366Z,12.09
2023-05-15T04:12:58.216Z,12.70
2023-05-15T04:15:27.029Z,12.77
2023-05-15T04:17:55.443Z,13.16
2023-05-15T04:20:25.158Z,13.16
2023-05-15T04:22:53.291Z,12.99
2023-05-15T04:25:21.086Z,13.15
2023-05-15T04:27:49.174Z,13.35
2023-05-15T04:30:18.279Z,13.47
2023-05-15T04:32:45.822Z,13.59
2023-05-15T04:35:14.128Z,13.65
2023-05-15T04:37:43.280Z,13.65
2023-05-15T04:40:11.193Z,13.52
2023-05-15T04:42:39.569Z,12.78
2023-05-15T04:45:09.118Z,13.00
2023-05-15T04:47:38.072Z,12.53
2023-05-15T04:50:06.556Z,12.25
2023-05-15T04:52:34.157Z,12.45
2023-05-15T04:55:01.728Z,12.86
2023-05-15T04:57:29.203Z,13.04
2023-05-15T04:59:57.989Z,12.74
2023-05-15T05:02:25.678Z,12.97
2023-05-15T05:04:54.486Z,13.37
2023-05-15T05:07:21.991Z,13.59
2023-05-15T05:09:49.457Z,13.67
2023-05-15T05:12:16.962Z,13.83
2023-05-15T05:14:44.841Z,13.99
2023-05-15T05:17:12.546Z,12.99
2023-05-15T05:19:40.104Z,13.24
2023-05-15T05:22:09.093Z,12.23
2023-05-15T05:24:37.446Z,11.96
2023-05-15T05:27:05.462Z,11.92
2023-05-15T05:29:33.137Z,11.59
2023-05-15T05:32:01.219Z,12.04
2023-05-15T05:34:29.196Z,12.15
2023-05-15T05:36:56.683Z,12.42
2023-05-15T05:39:25.576Z,13.23
2023-05-15T05:41:53.011Z,13.53
2023-05-15T05:44:20.529Z,12.80
2023-05-15T05:46:48.121Z,12.17
2023-05-15T05:49:15.720Z,11.75
2023-05-15T05:51:43.802Z,11.66
2023-05-15T05:54:11.271Z,11.41
2023-05-15T05:56:40.498Z,11.37
2023-05-15T05:59:08.022Z,11.43
2023-05-15T06:01:35.578Z,11.48
2023-05-15T06:04:03.102Z,12.18
2023-05-15T06:06:30.788Z,12.39
2023-05-15T06:08:58.269Z,12.87
2023-05-15T06:11:25.911Z,12.81
2023-05-15T06:13:54.726Z,12.77
2023-05-15T06:16:22.620Z,13.65
2023-05-15T06:18:50.190Z,13.70
2023-05-15T06:21:17.710Z,13.60
2023-05-15T06:23:45.755Z,13.96
2023-05-15T06:26:13.252Z,14.25
2023-05-15T06:28:40.706Z,14.54
2023-05-15T06:31:09.608Z,14.73
2023-05-15T06:33:37.099Z,14.40
2023-05-15T06:36:04.783Z,15.01
2023-05-15T06:38:32.242Z,14.61
2023-05-15T06:40:59.676Z,14.84
2023-05-15T06:43:27.128Z,15.11
2023-05-15T06:45:54.654Z,14.96
2023-05-15T06:48:23.448Z,14.97
2023-05-15T06:50:51.430Z,15.40
2023-05-15T06:53:21.111Z,15.62
2023-05-15T06:55:48.603Z,16.16
2023-05-15T06:58:17.922Z,15.73
2023-05-15T07:00:45.407Z,16.31
2023-05-15T07:03:14.281Z,16.40
2023-05-15T07:05:43.284Z,15.82
2023-05-15T07:08:10.734Z,16.42
2023-05-15T07:10:38.496Z,17.68
2023-05-15T07:13:05.994Z,19.22
2023-05-15T07:15:33.492Z,19.95
2023-05-15T07:18:01.119Z,20.21
2023-05-15T07:20:30.927Z,19.30
2023-05-15T07:23:01.116Z,19.70
2023-05-15T07:25:28.939Z,19.44
2023-05-15T07:27:56.746Z,20.43
2023-05-15T07:30:24.686Z,21.12
2023-05-15T07:32:52.443Z,18.87
2023-05-15T07:35:20.127Z,19.23
2023-05-15T07:37:47.610Z,18.39
2023-05-15T07:40:16.415Z,19.55
2023-05-15T07:42:45.087Z,21.89
2023-05-15T07:45:12.725Z,22.42
2023-05-15T07:47:46.454Z,23.82
2023-05-15T07:50:14.805Z,24.85
2023-05-15T07:52:43.071Z,23.61
2023-05-15T07:55:11.109Z,23.70
2023-05-15T07:57:40.767Z,23.97
2023-05-15T08:00:13.117Z,23.37
2023-05-15T08:02:40.797Z,24.13
2023-05-15T08:05:09.201Z,23.62
2023-05-15T08:07:36.884Z,22.76
2023-05-15T08:10:06.160Z,21.70
2023-05-15T08:12:34.311Z,21.04
2023-05-15T08:15:03.273Z,21.78
2023-05-15T08:17:30.843Z,23.01
2023-05-15T08:19:58.333Z,23.50
2023-05-15T08:22:25.782Z,23.71
2023-05-15T08:24:53.251Z,21.27
2023-05-15T08:27:20.852Z,19.94
2023-05-15T08:29:48.367Z,19.58
2023-05-15T08:32:17.956Z,18.77
2023-05-15T08:34:45.585Z,18.32
2023-05-15T08:37:13.082Z,18.97
2023-05-15T08:39:40.562Z,17.14
2023-05-15T08:42:11.844Z,16.67
2023-05-15T08:44:40.245Z,17.66
2023-05-15T08:47:08.193Z,17.63
2023-05-15T08:49:51.390Z,18.76
2023-05-15T08:52:18.920Z,20.00
2023-05-15T08:54:48.457Z,20.57
2023-05-15T08:57:17.220Z,20.89
2023-05-15T08:59:44.751Z,20.63
2023-05-15T09:02:12.358Z,20.78
2023-05-15T09:04:41.338Z,21.94
2023-05-15T09:07:10.542Z,21.19
2023-05-15T09:09:38.184Z,21.57
2023-05-15T09:12:11.430Z,22.76
2023-05-15T09:14:38.909Z,21.63
2023-05-15T09:17:06.665Z,20.23
2023-05-15T09:19:35.380Z,21.23
2023-05-15T09:22:17.853Z,20.94
2023-05-15T09:24:47.996Z,22.57
2023-05-15T09:27:15.969Z,22.37
2023-05-15T09:29:43.552Z,22.01
2023-05-15T09:32:12.826Z,23.45
2023-05-15T09:34:42.310Z,21.11
2023-05-15T09:37:11.232Z,20.27
2023-05-15T09:39:44.025Z,21.48
2023-05-15T09:42:12.689Z,21.64
2023-05-15T09:44:42.535Z,21.82
2023-05-15T09:47:11.243Z,22.04
2023-05-15T09:49:38.926Z,21.01
2023-05-15T09:52:10.728Z,20.02
2023-05-15T09:54:38.870Z,21.04
2023-05-15T09:57:12.589Z,23.66
2023-05-15T09:59:44.856Z,24.48
2023-05-15T10:02:15.933Z,25.51
2023-05-15T10:04:43.464Z,25.48
2023-05-15T10:07:11.015Z,24.73
2023-05-15T10:09:39.189Z,23.99
2023-05-15T10:12:09.177Z,24.97
2023-05-15T10:14:38.029Z,25.42
2023-05-15T10:17:05.901Z,26.02
2023-05-15T10:19:34.749Z,24.12
2023-05-15T10:22:06.195Z,25.45
2023-05-15T10:24:34.705Z,25.86
2023-05-15T10:27:03.041Z,24.64
2023-05-15T10:29:31.618Z,23.34
2023-05-15T10:32:01.921Z,23.82
2023-05-15T10:34:30.036Z,25.77
2023-05-15T10:36:57.728Z,25.80
2023-05-15T10:39:28.230Z,24.07
2023-05-15T10:41:57.293Z,24.33
2023-05-15T10:44:24.735Z,24.46
2023-05-15T10:46:53.066Z,23.15
2023-05-15T10:49:21.929Z,23.24
2023-05-15T10:51:50.449Z,23.60
2023-05-15T10:54:17.939Z,23.37
2023-05-15T10:56:45.642Z,23.14
2023-05-15T10:59:13.191Z,23.18
2023-05-15T11:01:42.252Z,22.78
2023-05-15T11:04:12.403Z,22.93
2023-05-15T11:06:43.706Z,21.12
2023-05-15T11:09:36.497Z,20.83
2023-05-15T11:12:05.239Z,22.48
2023-05-15T11:14:37.856Z,23.29
2023-05-15T11:17:06.961Z,21.01
2023-05-15T11:19:39.457Z,20.33
2023-05-15T11:22:21.868Z,20.28
2023-05-15T11:24:52.258Z,19.57
2023-05-15T11:27:22.049Z,19.37
2023-05-15T11:30:09.886Z,19.60
2023-05-15T11:32:51.367Z,20.23
2023-05-15T11:35:24.221Z,21.91
2023-05-15T11:37:54.157Z,22.64
2023-05-15T11:40:24.231Z,23.07
2023-05-15T11:43:04.723Z,24.42
2023-05-15T11:45:33.818Z,24.64
2023-05-15T11:48:03.298Z,24.98
2023-05-15T11:50:32.032Z,25.93
2023-05-15T11:53:03.960Z,25.67
2023-05-15T11:55:33.052Z,26.47
2023-05-15T11:58:01.101Z,27.66
2023-05-15T12:00:28.773Z,29.29
2023-05-15T12:02:56.355Z,29.92
2023-05-15T12:05:24.410Z,27.05
2023-05-15T12:07:52.331Z,23.39
2023-05-15T12:10:21.152Z,23.84
2023-05-15T12:12:49.885Z,18.96
2023-05-15T12:15:18.449Z,18.25
2023-05-15T12:17:46.695Z,17.49
2023-05-15T12:20:17.774Z,18.74
2023-05-15T12:22:45.800Z,20.44
2023-05-15T12:25:17.709Z,21.84
2023-05-15T12:27:46.612Z,22.04
2023-05-15T12:30:15.172Z,21.62
2023-05-15T12:32:43.440Z,20.36
2023-05-15T12:35:12.674Z,19.13
2023-05-15T12:37:41.061Z,16.69
2023-05-15T12:40:10.578Z,15.05
2023-05-15T12:42:42.459Z,14.32
2023-05-15T12:45:15.518Z,14.56
2023-05-15T12:47:43.737Z,15.38
2023-05-15T12:50:16.636Z,16.66
2023-05-15T12:52:53.960Z,17.07
2023-05-15T12:55:25.656Z,16.92
2023-05-15T12:57:53.738Z,18.52
2023-05-15T13:00:23.856Z,19.59
2023-05-15T13:02:53.453Z,20.20
2023-05-15T13:05:23.394Z,21.87
2023-05-15T13:07:51.811Z,23.78
2023-05-15T13:10:22.392Z,24.26
2023-05-15T13:12:49.968Z,24.08
2023-05-15T13:15:26.891Z,24.89
2023-05-15T13:17:57.327Z,24.40
2023-05-15T13:20:25.673Z,24.91
2023-05-15T13:22:53.343Z,26.26
2023-05-15T13:25:21.852Z,26.17
2023-05-15T13:27:49.973Z,26.58
2023-05-15T13:30:17.990Z,26.06
2023-05-15T13:32:47.284Z,25.84
2023-05-15T13:35:15.028Z,24.36
2023-05-15T13:37:43.145Z,24.59
2023-05-15T13:40:12.237Z,26.84
2023-05-15T13:42:40.673Z,28.59
2023-05-15T13:45:09.528Z,29.16
2023-05-15T13:47:39.302Z,28.51
2023-05-15T13:50:09.766Z,28.36
2023-05-15T13:52:37.597Z,27.97
2023-05-15T13:55:05.924Z,28.64
2023-05-15T13:57:33.757Z,26.71
2023-05-15T14:00:01.254Z,26.24
2023-05-15T14:02:29.254Z,27.47
2023-05-15T14:04:56.786Z,28.04
2023-05-15T14:07:26.512Z,27.51
2023-05-15T14:09:54.006Z,27.92
2023-05-15T14:12:22.074Z,29.19
2023-05-15T14:14:50.320Z,30.33
2023-05-15T14:17:18.254Z,30.12
2023-05-15T14:19:45.924Z,28.76
2023-05-15T14:22:13.373Z,26.13
2023-05-15T14:24:42.484Z,24.14
2023-05-15T14:27:10.084Z,22.69
2023-05-15T14:29:37.559Z,22.04
2023-05-15T14:32:05.377Z,21.91
2023-05-15T14:34:33.079Z,21.99
2023-05-15T14:37:00.513Z,21.49
2023-05-15T14:39:28.075Z,20.84
2023-05-15T14:41:56.882Z,20.89
2023-05-15T14:44:24.328Z,20.80
2023-05-15T14:47:06.608Z,20.21
2023-05-15T14:49:34.093Z,19.72
2023-05-15T14:52:01.570Z,18.89
2023-05-15T14:54:29.450Z,18.57
2023-05-15T14:56:58.434Z,18.50
2023-05-15T14:59:26.059Z,18.40
2023-05-15T15:01:53.525Z,18.78
2023-05-15T15:04:21.040Z,18.57
2023-05-15T15:06:48.740Z,17.94
2023-05-15T15:09:17.341Z,17.09
2023-05-15T15:11:45.804Z,16.81
2023-05-15T15:14:14.605Z,16.83
2023-05-15T15:16:44.061Z,17.00
2023-05-15T15:19:11.660Z,17.28
2023-05-15T15:21:39.240Z,17.47
2023-05-15T15:24:07.272Z,17.97
2023-05-15T15:26:34.773Z,18.71
2023-05-15T15:29:02.409Z,18.79
2023-05-15T15:31:31.642Z,19.38
2023-05-15T15:33:59.709Z,20.01
2023-05-15T15:36:27.255Z,20.62
2023-05-15T15:38:54.707Z,21.33
2023-05-15T15:41:23.348Z,22.04
2023-05-15T15:43:51.005Z,22.13
2023-05-15T15:46:18.588Z,22.49
2023-05-15T15:48:47.447Z,22.89
2023-05-15T15:51:14.947Z,23.44
2023-05-15T15:53:42.499Z,23.40
2023-05-15T15:56:09.982Z,23.67
2023-05-15T15:58:37.427Z,23.47
2023-05-15T16:01:05.119Z,23.21
2023-05-15T16:03:33.384Z,23.41
2023-05-15T16:06:02.370Z,23.36
2023-05-15T16:08:29.872Z,23.10
2023-05-15T16:10:57.928Z,22.91
2023-05-15T16:13:25.414Z,22.63
2023-05-15T16:15:52.878Z,22.26
2023-05-15T16:18:20.351Z,21.44
2023-05-15T16:20:48.651Z,21.12
2023-05-15T16:23:17.503Z,20.96
2023-05-15T16:25:45.675Z,20.79
2023-05-15T16:28:13.123Z,20.55
2023-05-15T16:30:48.748Z,20.65
2023-05-15T16:33:17.682Z,20.70
2023-05-15T16:35:45.488Z,20.11
2023-05-15T16:38:13.242Z,20.11
2023-05-15T16:40:42.129Z,20.20
2023-05-15T16:43:09.677Z,19.47
2023-05-15T16:45:37.254Z,19.19
2023-05-15T16:48:05.274Z,18.92
2023-05-15T16:50:33.690Z,18.84
2023-05-15T16:53:01.180Z,18.42
2023-05-15T16:55:28.927Z,18.37
2023-05-15T16:57:58.779Z,18.26
2023-05-15T17:00:26.501Z,17.95
2023-05-15T17:02:54.494Z,17.72
2023-05-15T17:05:22.103Z,17.75
2023-05-15T17:07:49.613Z,17.42
2023-05-15T17:10:17.087Z,17.27
2023-05-15T17:12:44.890Z,17.26
2023-05-15T17:15:14.043Z,17.31
2023-05-15T17:17:41.525Z,17.14
2023-05-15T17:20:10.085Z,16.67
2023-05-15T17:22:37.905Z,16.75
2023-05-15T17:25:06.989Z,16.89
2023-05-15T17:27:35.794Z,16.64
2023-05-15T17:30:03.310Z,16.53
2023-05-15T17:32:32.215Z,16.09
2023-05-15T17:34:59.655Z,15.67
2023-05-15T17:37:27.357Z,15.54
2023-05-15T17:39:55.425Z,15.28
2023-05-15T17:42:24.972Z,15.17
2023-05-15T17:44:52.501Z,15.02
2023-05-15T17:47:19.961Z,15.09
2023-05-15T17:49:48.737Z,15.23
2023-05-15T17:52:16.329Z,14.98
2023-05-15T17:54:43.813Z,15.35
2023-05-15T17:57:11.484Z,15.14
2023-05-15T17:59:38.935Z,15.30
2023-05-15T18:02:06.595Z,15.12
2023-05-15T18:04:34.192Z,15.09
2023-05-15T18:07:03.054Z,14.85
2023-05-15T18:09:30.590Z,14.57
2023-05-15T18:11:58.058Z,14.53
2023-05-15T18:14:25.577Z,14.84
2023-05-15T18:16:53.103Z,14.79
2023-05-15T18:19:20.722Z,14.85
2023-05-15T18:21:48.260Z,15.03
2023-05-15T18:24:17.159Z,15.00
2023-05-15T18:26:44.752Z,14.89
2023-05-15T18:29:12.624Z,14.81
2023-05-15T18:31:40.147Z,14.84
2023-05-15T18:34:07.705Z,15.01
2023-05-15T18:36:35.416Z,14.73
2023-05-15T18:39:03.359Z,14.49
2023-05-15T18:41:32.138Z,14.31
2023-05-15T18:43:59.609Z,14.26
2023-05-15T18:46:28.347Z,14.40
2023-05-15T18:48:55.981Z,14.46
2023-05-15T18:51:24.197Z,14.38
2023-05-15T18:53:51.758Z,14.43
2023-05-15T18:56:19.230Z,14.18
2023-05-15T18:58:48.219Z,14.52
2023-05-15T19:01:15.734Z,14.25
2023-05-15T19:03:43.234Z,13.99
2023-05-15T19:06:11.988Z,14.30
2023-05-15T19:08:39.476Z,14.12
2023-05-15T19:11:08.668Z,14.19
2023-05-15T19:13:36.117Z,14.24
2023-05-15T19:16:06.743Z,14.23
2023-05-15T19:18:34.349Z,14.20
2023-05-15T19:21:01.890Z,13.93
2023-05-15T19:23:29.373Z,13.96
2023-05-15T19:25:56.903Z,13.97
2023-05-15T19:28:24.356Z,14.25
2023-05-15T19:30:51.806Z,14.22
2023-05-15T19:33:20.984Z,14.27
2023-05-15T19:35:48.560Z,14.70
2023-05-15T19:38:16.416Z,15.10
2023-05-15T19:40:45.341Z,14.67
2023-05-15T19:43:14.131Z,14.19
2023-05-15T19:45:42.548Z,14.58
2023-05-15T19:48:10.840Z,14.75
2023-05-15T19:50:40.392Z,14.64
2023-05-15T19:53:07.922Z,14.66
2023-05-15T19:55:35.833Z,14.37
2023-05-15T19:58:03.293Z,13.76
2023-05-15T20:00:30.802Z,13.63
2023-05-15T20:02:58.347Z,13.63
2023-05-15T20:05:25.865Z,13.88
2023-05-15T20:07:54.799Z,13.87
2023-05-15T20:10:22.479Z,13.66
2023-05-15T20:12:49.987Z,13.53
2023-05-15T20:15:18.139Z,13.60
2023-05-15T20:17:45.667Z,13.69
2023-05-15T20:20:13.595Z,13.82
2023-05-15T20:22:44.777Z,13.94
2023-05-15T20:25:15.107Z,13.71
2023-05-15T20:27:42.570Z,13.40
2023-05-15T20:30:11.012Z,12.84
2023-05-15T20:32:38.563Z,12.76
2023-05-15T20:35:07.416Z,12.55
2023-05-15T20:37:34.889Z,12.36
2023-05-15T20:40:05.180Z,12.33
2023-05-15T20:42:34.058Z,12.41
2023-05-15T20:45:01.530Z,12.51
2023-05-15T20:47:29.047Z,12.73
2023-05-15T20:49:56.535Z,12.80
2023-05-15T20:52:24.051Z,12.78
2023-05-15T20:54:51.540Z,12.65
2023-05-15T20:57:19.031Z,12.49
2023-05-15T20:59:47.813Z,12.49
2023-05-15T21:02:15.283Z,12.48
2023-05-15T21:04:42.785Z,12.37
2023-05-15T21:07:10.800Z,12.61
2023-05-15T21:09:38.278Z,12.71
2023-05-15T21:12:06.555Z,12.41
2023-05-15T21:14:34.026Z,12.26
2023-05-15T21:17:03.095Z,12.31
2023-05-15T21:19:30.564Z,12.25
2023-05-15T21:21:58.017Z,12.11
2023-05-15T21:24:25.470Z,12.37
2023-05-15T21:26:52.970Z,12.58
2023-05-15T21:29:20.429Z,13.49
2023-05-15T21:31:48.243Z,13.86
2023-05-15T21:34:17.066Z,14.00
2023-05-15T21:36:44.612Z,13.89
2023-05-15T21:39:12.130Z,13.61
2023-05-15T21:41:39.582Z,13.81
2023-05-15T21:44:07.051Z,13.73
2023-05-15T21:46:35.192Z,13.85
2023-05-15T21:49:03.444Z,13.94
2023-05-15T21:51:32.930Z,13.63
2023-05-15T21:54:00.389Z,13.65
2023-05-15T21:56:27.886Z,13.69
2023-05-15T21:58:55.409Z,13.49
2023-05-15T22:01:23.010Z,13.29
2023-05-15T22:03:50.602Z,12.78
2023-05-15T22:06:18.267Z,12.71
2023-05-15T22:08:47.059Z,12.81
2023-05-15T22:11:15.365Z,13.09
2023-05-15T22:13:42.874Z,13.04
2023-05-15T22:16:10.413Z,13.03
2023-05-15T22:18:37.939Z,13.14
2023-05-15T22:21:06.343Z,13.22
2023-05-15T22:23:33.844Z,13.29
2023-05-15T22:26:02.910Z,13.22
2023-05-15T22:28:30.406Z,13.19
2023-05-15T22:30:57.912Z,12.95
2023-05-15T22:33:25.583Z,12.82
2023-05-15T22:35:53.566Z,12.96
2023-05-15T22:38:21.227Z,12.96
2023-05-15T22:40:50.872Z,12.96
2023-05-15T22:43:19.881Z,12.89
2023-05-15T22:45:47.391Z,12.68
2023-05-15T22:48:15.626Z,12.64
2023-05-15T22:50:43.642Z,12.68
2023-05-15T22:53:11.158Z,12.68
2023-05-15T22:55:38.631Z,12.64
2023-05-15T22:58:06.216Z,12.48
2023-05-15T23:00:35.264Z,12.43
2023-05-15T23:03:02.899Z,12.16
2023-05-15T23:05:30.652Z,12.46
2023-05-15T23:07:58.133Z,12.50
2023-05-15T23:10:25.883Z,12.33
2023-05-15T23:12:53.787Z,12.35
2023-05-15T23:15:21.330Z,12.47
2023-05-15T23:17:50.261Z,12.51
2023-05-15T23:20:18.026Z,12.47
2023-05-15T23:22:45.515Z,12.48
2023-05-15T23:25:13.021Z,12.39
2023-05-15T23:27:40.502Z,12.49
2023-05-15T23:30:09.761Z,12.36
2023-05-15T23:32:37.253Z,12.39
2023-05-15T23:35:07.088Z,12.35
2023-05-15T23:37:34.559Z,12.36
2023-05-15T23:40:02.047Z,11.80
2023-05-15T23:42:31.002Z,11.82
2023-05-15T23:44:58.466Z,11.37
2023-05-15T23:47:25.940Z,11.67
2023-05-15T23:49:53.437Z,11.88
2023-05-15T23:52:22.476Z,12.01
2023-05-15T23:54:49.957Z,12.04
2023-05-15T23:57:17.420Z,12.04
2023-05-15T23:59:45.006Z,11.83
